Item Display Status Humidity-temperature Sensor

Elevation Above Sea Level: 3 m

 

Deployed Sensor

  • Serial Number: 20593481
  • NDBC Property Number: 45528
  • Start Date: 1/10/2023 (08:22:34 Z)
  • End Date: Currently Active
Relative Humidity [%]     6 entries per hour
Showing data from 7/17/2024 (15:00:00 Z) to 7/16/2024 (00:00:01 Z)
Previous Next [ Day | 3-Days | 7-Days ]
First Last
Prev [ Day | 3-Days | 7-Days ] Next
First Last

Start Time:     :
End Time:     :     
Time (in GMT) :00 :50 :40 :30 :20 :10
Previous Next [ Day | 3-Days | 7-Days ]
First Last
Prev [ Day | 3-Days | 7-Days ] Next
First Last


123 => good data
MM => data is determined as missing
-- => data not received/configured
Back to Top Back to Top
7/17/2024 15:00 to 14:10 92.80 92.86 91.26 90.47 90.55 90.57
7/17/2024 14:00 to 13:10 90.65 90.78 91.28 91.67 93.53 95.66
7/17/2024 13:00 to 12:10 95.50 94.53 93.57 92.80 91.51 91.04
7/17/2024 12:00 to 11:10 90.33 90.29 89.70 89.03 88.10 88.02
7/17/2024 11:00 to 10:10 87.43 87.86 88.36 88.81 89.26 89.54
7/17/2024 10:00 to 9:10 90.53 90.94 92.32 93.03 93.31 93.03
7/17/2024 09:00 to 8:10 93.86 94.61 94.79 93.92 92.74 92.24
7/17/2024 08:00 to 7:10 91.89 91.63 91.38 90.51 90.19 90.65
7/17/2024 07:00 to 6:10 91.42 92.01 93.13 94.61 95.52 96.25
7/17/2024 06:00 to 5:10 96.41 95.42 95.17 95.15 94.93 95.48
7/17/2024 05:00 to 4:10 95.58 95.68 96.03 96.25 96.53 96.13
7/17/2024 04:00 to 3:10 95.97 95.80 95.17 94.30 94.51 94.42
7/17/2024 03:00 to 2:10 93.59 93.55 93.15 93.17 93.29 93.23
7/17/2024 02:00 to 1:10 92.48 91.81 91.38 91.08 90.84 90.21
7/17/2024 01:00 to 0:10 90.01 89.74 89.66 89.01 88.81 88.63
7/17/2024 00:00 to 23:10 88.44 88.61 87.78 86.92 87.13 87.31
7/16/2024 23:00 to 22:10 87.63 87.84 87.92 87.21 87.37 87.41
7/16/2024 22:00 to 21:10 86.94 86.44 86.54 86.48 86.54 86.28
7/16/2024 21:00 to 20:10 86.46 86.82 86.74 86.32 86.58 86.82
7/16/2024 20:00 to 19:10 87.49 87.69 88.59 88.42 88.67 88.63
7/16/2024 19:00 to 18:10 88.63 88.57 88.08 87.86 88.34 88.81
7/16/2024 18:00 to 17:10 88.42 88.81 88.71 88.63 88.57 88.48
7/16/2024 17:00 to 16:10 88.57 88.65 88.95 89.26 90.11 90.61
7/16/2024 16:00 to 15:10 90.86 90.65 91.02 91.26 90.73 90.41
7/16/2024 15:00 to 14:10 90.35 90.71 91.36 91.28 91.12 91.02
7/16/2024 14:00 to 13:10 91.53 91.69 91.49 91.34 91.46 91.83
7/16/2024 13:00 to 12:10 91.67 92.03 92.36 93.01 93.80 94.65
7/16/2024 12:00 to 11:10 95.66 96.01 95.64 95.34 94.79 94.12
7/16/2024 11:00 to 10:10 94.16 95.32 95.80 95.32 94.20 93.72
7/16/2024 10:00 to 9:10 94.10 94.40 94.77 94.79 94.06 94.36
7/16/2024 09:00 to 8:10 94.81 94.97 94.22 92.72 93.17 92.96
7/16/2024 08:00 to 7:10 93.29 94.16 93.25 92.96 93.84 94.42
7/16/2024 07:00 to 6:10 94.44 94.57 95.15 95.22 94.04 94.02
7/16/2024 06:00 to 5:10 94.49 94.93 94.77 94.22 93.88 94.75
7/16/2024 05:00 to 4:10 95.82 95.46 94.69 94.16 93.61 92.28
7/16/2024 04:00 to 3:10 92.32 93.07 92.86 93.15 92.92 91.73
7/16/2024 03:00 to 2:10 91.57 91.55 89.76 88.75 88.85 88.57
7/16/2024 02:00 to 1:10 88.20 88.42 88.48 89.01 89.23 89.62
7/16/2024 01:00 to 0:10 90.11 90.63 91.14 91.04 90.90 90.94

 

 

 

Air Temperature [°C]     6 entries per hour
Showing data from 7/17/2024 (15:00:00 Z) to 7/16/2024 (00:00:01 Z)
Previous Next [ Day | 3-Days | 7-Days ]
First Last
Prev [ Day | 3-Days | 7-Days ] Next
First Last

Start Time:     :
End Time:     :     
Time (in GMT) :00 :50 :40 :30 :20 :10
Previous Next [ Day | 3-Days | 7-Days ]
First Last
Prev [ Day | 3-Days | 7-Days ] Next
First Last


123 => good data
MM => data is determined as missing
-- => data not received/configured
Back to Top Back to Top
7/17/2024 15:00 to 14:10 21.91 21.83 22.26 22.11 22.41 22.19
7/17/2024 14:00 to 13:10 22.23 22.26 22.25 22.32 21.87 21.62
7/17/2024 13:00 to 12:10 21.47 21.54 21.92 22.08 22.31 22.12
7/17/2024 12:00 to 11:10 22.22 22.25 22.23 22.42 22.33 22.34
7/17/2024 11:00 to 10:10 22.36 22.31 22.25 22.44 22.26 22.31
7/17/2024 10:00 to 9:10 22.00 22.09 21.96 21.86 21.92 22.15
7/17/2024 09:00 to 8:10 21.94 21.77 21.58 21.67 21.95 22.06
7/17/2024 08:00 to 7:10 22.04 22.09 22.14 22.22 22.39 22.46
7/17/2024 07:00 to 6:10 22.18 22.40 22.10 21.87 21.91 21.70
7/17/2024 06:00 to 5:10 21.38 21.89 22.07 22.10 22.31 22.10
7/17/2024 05:00 to 4:10 22.03 22.23 22.30 22.17 22.11 22.25
7/17/2024 04:00 to 3:10 22.27 22.08 22.27 22.32 22.43 22.49
7/17/2024 03:00 to 2:10 22.53 22.31 22.51 22.48 22.51 22.74
7/17/2024 02:00 to 1:10 22.76 22.88 23.11 22.86 22.90 23.19
7/17/2024 01:00 to 0:10 23.02 23.04 23.21 23.19 23.09 23.12
7/17/2024 00:00 to 23:10 23.20 23.19 23.34 23.32 23.52 23.41
7/16/2024 23:00 to 22:10 23.38 23.30 23.45 23.55 23.55 23.36
7/16/2024 22:00 to 21:10 23.59 23.46 23.33 23.58 23.44 23.45
7/16/2024 21:00 to 20:10 23.48 23.43 23.64 23.51 23.40 23.47
7/16/2024 20:00 to 19:10 23.44 23.53 23.53 23.44 23.46 23.38
7/16/2024 19:00 to 18:10 23.41 23.50 23.40 23.47 23.48 23.50
7/16/2024 18:00 to 17:10 23.49 23.58 23.40 23.54 23.42 23.39
7/16/2024 17:00 to 16:10 23.42 23.46 23.31 23.27 23.23 23.24
7/16/2024 16:00 to 15:10 23.26 23.33 23.49 23.35 23.49 23.46
7/16/2024 15:00 to 14:10 23.51 23.27 23.48 23.25 23.38 23.29
7/16/2024 14:00 to 13:10 23.04 23.09 23.52 23.28 23.25 23.19
7/16/2024 13:00 to 12:10 23.26 23.10 23.03 23.07 22.98 23.01
7/16/2024 12:00 to 11:10 22.70 22.78 22.67 22.78 22.76 23.23
7/16/2024 11:00 to 10:10 22.83 22.89 22.62 22.65 23.11 23.05
7/16/2024 10:00 to 9:10 22.93 22.95 22.72 23.06 23.05 23.02
7/16/2024 09:00 to 8:10 23.08 22.87 22.90 23.27 23.36 23.55
7/16/2024 08:00 to 7:10 23.29 23.16 23.38 23.47 23.09 23.10
7/16/2024 07:00 to 6:10 23.18 23.15 22.59 22.66 23.32 23.34
7/16/2024 06:00 to 5:10 23.15 22.90 23.04 23.47 23.24 23.53
7/16/2024 05:00 to 4:10 23.01 23.05 23.17 23.31 23.03 23.60
7/16/2024 04:00 to 3:10 23.56 23.10 23.35 23.19 23.05 23.52
7/16/2024 03:00 to 2:10 23.01 22.98 23.31 23.76 23.79 23.83
7/16/2024 02:00 to 1:10 23.90 23.83 24.00 23.96 24.00 23.83
7/16/2024 01:00 to 0:10 23.87 23.87 23.82 23.93 23.86 24.08